sensor_id;sensor_type;location;lat;lon;timestamp;P1;durP1;ratioP1;P2;durP2;ratioP2
61499;SDS011;47361;49.996;19.918;2023-04-24T00:01:46;8.2;;;6.0;;
61499;SDS011;47361;49.996;19.918;2023-04-24T00:04:46;6.3;;;5.6;;
61499;SDS011;47361;49.996;19.918;2023-04-24T00:05:46;6.3;;;5.6;;
61499;SDS011;47361;49.996;19.918;2023-04-24T00:08:46;7.9;;;5.7;;
61499;SDS011;47361;49.996;19.918;2023-04-24T00:09:46;7.9;;;5.7;;
61499;SDS011;47361;49.996;19.918;2023-04-24T00:10:46;7.9;;;5.7;;
61499;SDS011;47361;49.996;19.918;2023-04-24T00:13:46;8.1;;;6.0;;
61499;SDS011;47361;49.996;19.918;2023-04-24T00:15:46;8.1;;;6.0;;
61499;SDS011;47361;49.996;19.918;2023-04-24T00:18:46;9.5;;;5.8;;
61499;SDS011;47361;49.996;19.918;2023-04-24T00:19:47;9.5;;;5.8;;
61499;SDS011;47361;49.996;19.918;2023-04-24T00:20:46;9.5;;;5.8;;
61499;SDS011;47361;49.996;19.918;2023-04-24T00:25:46;8.8;;;5.9;;
61499;SDS011;47361;49.996;19.918;2023-04-24T00:27:46;9.4;;;6.2;;
61499;SDS011;47361;49.996;19.918;2023-04-24T00:29:46;9.4;;;6.2;;
61499;SDS011;47361;49.996;19.918;2023-04-24T00:30:46;9.4;;;6.2;;
61499;SDS011;47361;49.996;19.918;2023-04-24T00:32:46;7.1;;;5.9;;
61499;SDS011;47361;49.996;19.918;2023-04-24T00:33:46;7.1;;;5.9;;
61499;SDS011;47361;49.996;19.918;2023-04-24T00:37:46;9.2;;;6.1;;
61499;SDS011;47361;49.996;19.918;2023-04-24T00:38:46;9.2;;;6.1;;
61499;SDS011;47361;49.996;19.918;2023-04-24T00:41:47;9.2;;;6.1;;
61499;SDS011;47361;49.996;19.918;2023-04-24T00:42:46;10.2;;;6.0;;
61499;SDS011;47361;49.996;19.918;2023-04-24T00:47:47;8.5;;;6.0;;
61499;SDS011;47361;49.996;19.918;2023-04-24T00:48:46;8.5;;;6.0;;
61499;SDS011;47361;49.996;19.918;2023-04-24T00:50:46;8.5;;;6.0;;
61499;SDS011;47361;49.996;19.918;2023-04-24T00:52:46;9.1;;;5.7;;
61499;SDS011;47361;49.996;19.918;2023-04-24T00:54:46;9.1;;;5.7;;
61499;SDS011;47361;49.996;19.918;2023-04-24T00:55:46;9.1;;;5.7;;
61499;SDS011;47361;49.996;19.918;2023-04-24T00:58:46;8.3;;;5.3;;
61499;SDS011;47361;49.996;19.918;2023-04-24T00:59:46;8.3;;;5.3;;
61499;SDS011;47361;49.996;19.918;2023-04-24T01:00:48;8.3;;;5.3;;
61499;SDS011;47361;49.996;19.918;2023-04-24T01:08:47;8.4;;;5.8;;
61499;SDS011;47361;49.996;19.918;2023-04-24T01:09:47;8.4;;;5.8;;
61499;SDS011;47361;49.996;19.918;2023-04-24T01:10:47;8.4;;;5.8;;
61499;SDS011;47361;49.996;19.918;2023-04-24T01:12:46;8.1;;;5.5;;
61499;SDS011;47361;49.996;19.918;2023-04-24T01:18:46;6.8;;;5.7;;
61499;SDS011;47361;49.996;19.918;2023-04-24T01:20:47;6.8;;;5.7;;
61499;SDS011;47361;49.996;19.918;2023-04-24T01:21:47;8.8;;;5.8;;
61499;SDS011;47361;49.996;19.918;2023-04-24T01:23:46;8.8;;;5.8;;
61499;SDS011;47361;49.996;19.918;2023-04-24T01:24:46;8.8;;;5.8;;
61499;SDS011;47361;49.996;19.918;2023-04-24T01:30:46;7.7;;;5.7;;
61499;SDS011;47361;49.996;19.918;2023-04-24T01:31:46;8.1;;;5.6;;
61499;SDS011;47361;49.996;19.918;2023-04-24T01:37:46;9.5;;;5.6;;
61499;SDS011;47361;49.996;19.918;2023-04-24T01:38:46;9.5;;;5.6;;
61499;SDS011;47361;49.996;19.918;2023-04-24T01:43:47;7.6;;;5.6;;
61499;SDS011;47361;49.996;19.918;2023-04-24T01:44:46;7.6;;;5.6;;
61499;SDS011;47361;49.996;19.918;2023-04-24T01:45:46;7.6;;;5.6;;
61499;SDS011;47361;49.996;19.918;2023-04-24T01:47:46;8.2;;;5.7;;
61499;SDS011;47361;49.996;19.918;2023-04-24T01:49:47;8.2;;;5.7;;
61499;SDS011;47361;49.996;19.918;2023-04-24T01:52:46;7.9;;;5.4;;
61499;SDS011;47361;49.996;19.918;2023-04-24T01:57:46;7.4;;;5.7;;
61499;SDS011;47361;49.996;19.918;2023-04-24T01:58:46;7.4;;;5.7;;
61499;SDS011;47361;49.996;19.918;2023-04-24T02:02:46;8.5;;;5.8;;
61499;SDS011;47361;49.996;19.918;2023-04-24T02:07:46;9.7;;;5.5;;
61499;SDS011;47361;49.996;19.918;2023-04-24T02:09:46;9.7;;;5.5;;
61499;SDS011;47361;49.996;19.918;2023-04-24T02:13:46;9.5;;;5.6;;
61499;SDS011;47361;49.996;19.918;2023-04-24T02:14:46;9.5;;;5.6;;
61499;SDS011;47361;49.996;19.918;2023-04-24T02:15:46;9.5;;;5.6;;
61499;SDS011;47361;49.996;19.918;2023-04-24T02:16:46;8.2;;;5.5;;
61499;SDS011;47361;49.996;19.918;2023-04-24T02:20:46;8.2;;;5.5;;
61499;SDS011;47361;49.996;19.918;2023-04-24T02:24:46;6.9;;;5.2;;
61499;SDS011;47361;49.996;19.918;2023-04-24T02:27:46;8.6;;;5.9;;
61499;SDS011;47361;49.996;19.918;2023-04-24T02:28:46;8.6;;;5.9;;
61499;SDS011;47361;49.996;19.918;2023-04-24T02:36:46;6.7;;;5.1;;
61499;SDS011;47361;49.996;19.918;2023-04-24T02:38:46;6.7;;;5.1;;
61499;SDS011;47361;49.996;19.918;2023-04-24T02:42:46;8.1;;;5.8;;
61499;SDS011;47361;49.996;19.918;2023-04-24T02:44:46;8.1;;;5.8;;
61499;SDS011;47361;49.996;19.918;2023-04-24T02:48:46;7.2;;;5.0;;
61499;SDS011;47361;49.996;19.918;2023-04-24T02:52:46;6.8;;;5.0;;
61499;SDS011;47361;49.996;19.918;2023-04-24T02:54:46;6.8;;;5.0;;
61499;SDS011;47361;49.996;19.918;2023-04-24T02:55:46;6.8;;;5.0;;
61499;SDS011;47361;49.996;19.918;2023-04-24T02:59:46;7.9;;;5.0;;
61499;SDS011;47361;49.996;19.918;2023-04-24T03:01:46;7.0;;;5.1;;
61499;SDS011;47361;49.996;19.918;2023-04-24T03:04:46;7.0;;;5.1;;
61499;SDS011;47361;49.996;19.918;2023-04-24T03:05:46;7.0;;;5.1;;
61499;SDS011;47361;49.996;19.918;2023-04-24T03:06:46;7.1;;;5.7;;
61499;SDS011;47361;49.996;19.918;2023-04-24T03:09:46;7.1;;;5.7;;
61499;SDS011;47361;49.996;19.918;2023-04-24T03:10:46;7.1;;;5.7;;
61499;SDS011;47361;49.996;19.918;2023-04-24T03:11:46;7.3;;;5.1;;
61499;SDS011;47361;49.996;19.918;2023-04-24T03:13:46;7.3;;;5.1;;
61499;SDS011;47361;49.996;19.918;2023-04-24T03:15:46;7.3;;;5.1;;
61499;SDS011;47361;49.996;19.918;2023-04-24T03:16:46;7.1;;;4.9;;
61499;SDS011;47361;49.996;19.918;2023-04-24T03:19:46;7.1;;;4.9;;
61499;SDS011;47361;49.996;19.918;2023-04-24T03:21:46;8.2;;;5.6;;
61499;SDS011;47361;49.996;19.918;2023-04-24T03:24:46;8.2;;;5.6;;
61499;SDS011;47361;49.996;19.918;2023-04-24T03:26:46;9.2;;;5.4;;
61499;SDS011;47361;49.996;19.918;2023-04-24T03:27:46;9.2;;;5.4;;
61499;SDS011;47361;49.996;19.918;2023-04-24T03:31:46;10.5;;;6.1;;
61499;SDS011;47361;49.996;19.918;2023-04-24T03:35:46;10.5;;;6.1;;
61499;SDS011;47361;49.996;19.918;2023-04-24T03:36:46;10.6;;;6.3;;
61499;SDS011;47361;49.996;19.918;2023-04-24T03:37:46;10.6;;;6.3;;
61499;SDS011;47361;49.996;19.918;2023-04-24T03:39:46;10.6;;;6.3;;
61499;SDS011;47361;49.996;19.918;2023-04-24T03:40:46;10.6;;;6.3;;
61499;SDS011;47361;49.996;19.918;2023-04-24T03:41:46;6.8;;;5.3;;
61499;SDS011;47361;49.996;19.918;2023-04-24T03:42:46;6.8;;;5.3;;
61499;SDS011;47361;49.996;19.918;2023-04-24T03:44:46;6.8;;;5.3;;
61499;SDS011;47361;49.996;19.918;2023-04-24T03:46:46;7.2;;;5.8;;
61499;SDS011;47361;49.996;19.918;2023-04-24T03:48:46;7.2;;;5.8;;
61499;SDS011;47361;49.996;19.918;2023-04-24T03:51:46;8.6;;;5.2;;
61499;SDS011;47361;49.996;19.918;2023-04-24T03:53:46;8.6;;;5.2;;
61499;SDS011;47361;49.996;19.918;2023-04-24T03:55:46;8.6;;;5.2;;
61499;SDS011;47361;49.996;19.918;2023-04-24T03:56:46;11.4;;;5.4;;
61499;SDS011;47361;49.996;19.918;2023-04-24T03:57:46;11.4;;;5.4;;
61499;SDS011;47361;49.996;19.918;2023-04-24T04:00:46;11.4;;;5.4;;
61499;SDS011;47361;49.996;19.918;2023-04-24T04:06:46;9.2;;;5.8;;
61499;SDS011;47361;49.996;19.918;2023-04-24T04:16:46;10.9;;;6.3;;
61499;SDS011;47361;49.996;19.918;2023-04-24T04:26:46;9.2;;;6.1;;
61499;SDS011;47361;49.996;19.918;2023-04-24T04:27:47;9.2;;;6.1;;
61499;SDS011;47361;49.996;19.918;2023-04-24T04:30:46;9.2;;;6.1;;
61499;SDS011;47361;49.996;19.918;2023-04-24T04:31:46;9.4;;;5.8;;
61499;SDS011;47361;49.996;19.918;2023-04-24T04:36:46;10.8;;;6.3;;
61499;SDS011;47361;49.996;19.918;2023-04-24T04:38:46;10.8;;;6.3;;
61499;SDS011;47361;49.996;19.918;2023-04-24T04:46:46;11.5;;;6.2;;
61499;SDS011;47361;49.996;19.918;2023-04-24T04:51:46;10.3;;;5.9;;
61499;SDS011;47361;49.996;19.918;2023-04-24T04:52:46;10.3;;;5.9;;
61499;SDS011;47361;49.996;19.918;2023-04-24T04:56:46;10.7;;;5.7;;
61499;SDS011;47361;49.996;19.918;2023-04-24T05:01:46;9.1;;;6.0;;
61499;SDS011;47361;49.996;19.918;2023-04-24T05:03:46;9.1;;;6.0;;
61499;SDS011;47361;49.996;19.918;2023-04-24T05:05:46;9.1;;;6.0;;
61499;SDS011;47361;49.996;19.918;2023-04-24T05:06:46;10.0;;;6.6;;
61499;SDS011;47361;49.996;19.918;2023-04-24T05:08:46;10.0;;;6.6;;
61499;SDS011;47361;49.996;19.918;2023-04-24T05:09:46;10.0;;;6.6;;
61499;SDS011;47361;49.996;19.918;2023-04-24T05:11:46;8.5;;;6.3;;
61499;SDS011;47361;49.996;19.918;2023-04-24T05:13:46;8.5;;;6.3;;
61499;SDS011;47361;49.996;19.918;2023-04-24T05:15:46;8.5;;;6.3;;
61499;SDS011;47361;49.996;19.918;2023-04-24T05:16:46;7.7;;;5.8;;
61499;SDS011;47361;49.996;19.918;2023-04-24T05:18:46;7.7;;;5.8;;
61499;SDS011;47361;49.996;19.918;2023-04-24T05:20:46;7.7;;;5.8;;
61499;SDS011;47361;49.996;19.918;2023-04-24T05:21:46;10.0;;;5.4;;
61499;SDS011;47361;49.996;19.918;2023-04-24T05:25:46;10.0;;;5.4;;
61499;SDS011;47361;49.996;19.918;2023-04-24T05:26:46;7.5;;;5.4;;
61499;SDS011;47361;49.996;19.918;2023-04-24T05:31:46;8.7;;;5.0;;
61499;SDS011;47361;49.996;19.918;2023-04-24T05:34:46;8.7;;;5.0;;
61499;SDS011;47361;49.996;19.918;2023-04-24T05:36:46;7.9;;;5.7;;
61499;SDS011;47361;49.996;19.918;2023-04-24T05:38:46;7.9;;;5.7;;
61499;SDS011;47361;49.996;19.918;2023-04-24T05:40:46;7.9;;;5.7;;
61499;SDS011;47361;49.996;19.918;2023-04-24T05:41:46;12.2;;;5.7;;
61499;SDS011;47361;49.996;19.918;2023-04-24T05:43:46;12.2;;;5.7;;
61499;SDS011;47361;49.996;19.918;2023-04-24T05:44:46;12.2;;;5.7;;
61499;SDS011;47361;49.996;19.918;2023-04-24T05:46:46;9.7;;;5.0;;
61499;SDS011;47361;49.996;19.918;2023-04-24T05:47:46;9.7;;;5.0;;
61499;SDS011;47361;49.996;19.918;2023-04-24T05:50:46;12.6;;;5.7;;
61499;SDS011;47361;49.996;19.918;2023-04-24T05:51:46;12.6;;;5.7;;
61499;SDS011;47361;49.996;19.918;2023-04-24T05:52:46;12.6;;;5.7;;
61499;SDS011;47361;49.996;19.918;2023-04-24T05:54:46;12.6;;;5.7;;
61499;SDS011;47361;49.996;19.918;2023-04-24T05:56:46;11.2;;;5.3;;
61499;SDS011;47361;49.996;19.918;2023-04-24T05:57:46;11.2;;;5.3;;
61499;SDS011;47361;49.996;19.918;2023-04-24T05:59:46;11.2;;;5.3;;
61499;SDS011;47361;49.996;19.918;2023-04-24T06:00:46;8.9;;;5.7;;
61499;SDS011;47361;49.996;19.918;2023-04-24T06:02:46;8.9;;;5.7;;
61499;SDS011;47361;49.996;19.918;2023-04-24T06:03:46;8.9;;;5.7;;
61499;SDS011;47361;49.996;19.918;2023-04-24T06:05:46;9.2;;;4.9;;
61499;SDS011;47361;49.996;19.918;2023-04-24T06:06:46;9.2;;;4.9;;
61499;SDS011;47361;49.996;19.918;2023-04-24T06:07:47;9.2;;;4.9;;
61499;SDS011;47361;49.996;19.918;2023-04-24T06:09:46;9.2;;;4.9;;
61499;SDS011;47361;49.996;19.918;2023-04-24T06:10:46;8.7;;;4.7;;
61499;SDS011;47361;49.996;19.918;2023-04-24T06:11:46;8.7;;;4.7;;
61499;SDS011;47361;49.996;19.918;2023-04-24T06:13:47;8.7;;;4.7;;
61499;SDS011;47361;49.996;19.918;2023-04-24T06:14:46;8.7;;;4.7;;
61499;SDS011;47361;49.996;19.918;2023-04-24T06:16:46;6.9;;;4.5;;
61499;SDS011;47361;49.996;19.918;2023-04-24T06:17:47;6.9;;;4.5;;
61499;SDS011;47361;49.996;19.918;2023-04-24T06:18:46;6.9;;;4.5;;
61499;SDS011;47361;49.996;19.918;2023-04-24T06:20:46;10.5;;;4.6;;
61499;SDS011;47361;49.996;19.918;2023-04-24T06:21:46;10.5;;;4.6;;
61499;SDS011;47361;49.996;19.918;2023-04-24T06:23:46;10.5;;;4.6;;
61499;SDS011;47361;49.996;19.918;2023-04-24T06:25:47;7.9;;;4.1;;
61499;SDS011;47361;49.996;19.918;2023-04-24T06:26:46;7.9;;;4.1;;
61499;SDS011;47361;49.996;19.918;2023-04-24T06:27:46;7.9;;;4.1;;
61499;SDS011;47361;49.996;19.918;2023-04-24T06:29:46;7.9;;;4.1;;
61499;SDS011;47361;49.996;19.918;2023-04-24T06:30:46;6.9;;;4.5;;
61499;SDS011;47361;49.996;19.918;2023-04-24T06:31:46;6.9;;;4.5;;
61499;SDS011;47361;49.996;19.918;2023-04-24T06:33:47;6.9;;;4.5;;
61499;SDS011;47361;49.996;19.918;2023-04-24T06:35:46;6.6;;;4.1;;
61499;SDS011;47361;49.996;19.918;2023-04-24T06:36:47;6.6;;;4.1;;
61499;SDS011;47361;49.996;19.918;2023-04-24T06:39:46;6.6;;;4.1;;
61499;SDS011;47361;49.996;19.918;2023-04-24T06:41:46;7.3;;;4.3;;
61499;SDS011;47361;49.996;19.918;2023-04-24T06:42:46;7.3;;;4.3;;
61499;SDS011;47361;49.996;19.918;2023-04-24T06:44:46;7.3;;;4.3;;
61499;SDS011;47361;49.996;19.918;2023-04-24T06:46:46;5.8;;;4.3;;
61499;SDS011;47361;49.996;19.918;2023-04-24T06:47:47;5.8;;;4.3;;
61499;SDS011;47361;49.996;19.918;2023-04-24T06:50:46;8.3;;;4.6;;
61499;SDS011;47361;49.996;19.918;2023-04-24T06:51:46;8.3;;;4.6;;
61499;SDS011;47361;49.996;19.918;2023-04-24T06:53:46;8.3;;;4.6;;
61499;SDS011;47361;49.996;19.918;2023-04-24T06:55:46;5.7;;;3.9;;
61499;SDS011;47361;49.996;19.918;2023-04-24T06:57:46;5.7;;;3.9;;
61499;SDS011;47361;49.996;19.918;2023-04-24T07:00:46;5.6;;;4.0;;
61499;SDS011;47361;49.996;19.918;2023-04-24T07:01:47;5.6;;;4.0;;
61499;SDS011;47361;49.996;19.918;2023-04-24T07:04:46;5.6;;;4.0;;
61499;SDS011;47361;49.996;19.918;2023-04-24T07:06:47;5.8;;;3.8;;
61499;SDS011;47361;49.996;19.918;2023-04-24T07:09:46;5.8;;;3.8;;
61499;SDS011;47361;49.996;19.918;2023-04-24T07:10:46;6.6;;;4.0;;
61499;SDS011;47361;49.996;19.918;2023-04-24T07:11:46;6.6;;;4.0;;
61499;SDS011;47361;49.996;19.918;2023-04-24T07:15:47;6.4;;;3.9;;
61499;SDS011;47361;49.996;19.918;2023-04-24T07:16:46;6.4;;;3.9;;
61499;SDS011;47361;49.996;19.918;2023-04-24T07:20:47;4.6;;;3.6;;
61499;SDS011;47361;49.996;19.918;2023-04-24T07:22:47;4.6;;;3.6;;
61499;SDS011;47361;49.996;19.918;2023-04-24T07:24:46;4.6;;;3.6;;
61499;SDS011;47361;49.996;19.918;2023-04-24T07:25:47;6.0;;;3.8;;
61499;SDS011;47361;49.996;19.918;2023-04-24T07:26:46;6.0;;;3.8;;
61499;SDS011;47361;49.996;19.918;2023-04-24T07:29:46;6.0;;;3.8;;
61499;SDS011;47361;49.996;19.918;2023-04-24T07:31:47;6.5;;;3.9;;
61499;SDS011;47361;49.996;19.918;2023-04-24T07:33:47;6.5;;;3.9;;
61499;SDS011;47361;49.996;19.918;2023-04-24T07:36:46;4.4;;;3.4;;
61499;SDS011;47361;49.996;19.918;2023-04-24T07:39:46;4.4;;;3.4;;
61499;SDS011;47361;49.996;19.918;2023-04-24T07:41:46;5.7;;;3.5;;
61499;SDS011;47361;49.996;19.918;2023-04-24T07:45:47;4.5;;;3.5;;
61499;SDS011;47361;49.996;19.918;2023-04-24T07:46:47;4.5;;;3.5;;
61499;SDS011;47361;49.996;19.918;2023-04-24T07:50:46;5.3;;;3.6;;
61499;SDS011;47361;49.996;19.918;2023-04-24T07:54:46;5.3;;;3.6;;
61499;SDS011;47361;49.996;19.918;2023-04-24T07:55:46;4.8;;;3.5;;
61499;SDS011;47361;49.996;19.918;2023-04-24T07:59:47;4.8;;;3.5;;
61499;SDS011;47361;49.996;19.918;2023-04-24T08:01:46;5.0;;;3.2;;
61499;SDS011;47361;49.996;19.918;2023-04-24T08:05:46;8.2;;;3.8;;
61499;SDS011;47361;49.996;19.918;2023-04-24T08:08:46;8.2;;;3.8;;
61499;SDS011;47361;49.996;19.918;2023-04-24T08:10:47;6.9;;;3.6;;
61499;SDS011;47361;49.996;19.918;2023-04-24T08:13:46;6.9;;;3.6;;
61499;SDS011;47361;49.996;19.918;2023-04-24T08:15:46;6.6;;;3.5;;
61499;SDS011;47361;49.996;19.918;2023-04-24T08:17:46;6.6;;;3.5;;
61499;SDS011;47361;49.996;19.918;2023-04-24T08:24:47;4.9;;;3.4;;
61499;SDS011;47361;49.996;19.918;2023-04-24T08:25:46;3.8;;;3.1;;
61499;SDS011;47361;49.996;19.918;2023-04-24T08:27:46;3.8;;;3.1;;
61499;SDS011;47361;49.996;19.918;2023-04-24T08:29:47;3.8;;;3.1;;
61499;SDS011;47361;49.996;19.918;2023-04-24T08:31:46;5.7;;;3.3;;
61499;SDS011;47361;49.996;19.918;2023-04-24T08:35:47;4.7;;;3.0;;
61499;SDS011;47361;49.996;19.918;2023-04-24T08:37:47;4.7;;;3.0;;
61499;SDS011;47361;49.996;19.918;2023-04-24T08:39:47;4.7;;;3.0;;
61499;SDS011;47361;49.996;19.918;2023-04-24T08:46:48;5.1;;;3.3;;
61499;SDS011;47361;49.996;19.918;2023-04-24T08:48:47;5.1;;;3.3;;
61499;SDS011;47361;49.996;19.918;2023-04-24T08:50:47;6.0;;;3.2;;
61499;SDS011;47361;49.996;19.918;2023-04-24T08:51:48;6.0;;;3.2;;
61499;SDS011;47361;49.996;19.918;2023-04-24T08:53:47;6.0;;;3.2;;
61499;SDS011;47361;49.996;19.918;2023-04-24T08:55:47;5.3;;;3.5;;
61499;SDS011;47361;49.996;19.918;2023-04-24T08:57:51;5.3;;;3.5;;
61499;SDS011;47361;49.996;19.918;2023-04-24T09:00:46;5.0;;;3.0;;
61499;SDS011;47361;49.996;19.918;2023-04-24T09:03:48;5.0;;;3.0;;
61499;SDS011;47361;49.996;19.918;2023-04-24T09:06:47;3.6;;;2.8;;
61499;SDS011;47361;49.996;19.918;2023-04-24T09:10:47;6.4;;;3.2;;
61499;SDS011;47361;49.996;19.918;2023-04-24T09:12:14;unknown;;;unknown;;
61499;SDS011;47361;49.996;19.918;2023-04-24T09:15:14;5.2;;;3.1;;
61499;SDS011;47361;49.996;19.918;2023-04-24T09:17:14;5.2;;;3.1;;
61499;SDS011;47361;49.996;19.918;2023-04-24T09:20:14;7.7;;;3.2;;
61499;SDS011;47361;49.996;19.918;2023-04-24T09:22:15;7.7;;;3.2;;
61499;SDS011;47361;49.996;19.918;2023-04-24T09:24:16;7.7;;;3.2;;
61499;SDS011;47361;49.996;19.918;2023-04-24T09:26:14;4.3;;;2.9;;
61499;SDS011;47361;49.996;19.918;2023-04-24T09:28:15;4.3;;;2.9;;
61499;SDS011;47361;49.996;19.918;2023-04-24T09:30:21;4.1;;;2.8;;
61499;SDS011;47361;49.996;19.918;2023-04-24T09:36:17;8.8;;;3.3;;
61499;SDS011;47361;49.996;19.918;2023-04-24T09:37:27;8.8;;;3.3;;
61499;SDS011;47361;49.996;19.918;2023-04-24T09:40:16;6.7;;;3.1;;
61499;SDS011;47361;49.996;19.918;2023-04-24T09:41:14;6.7;;;3.1;;
61499;SDS011;47361;49.996;19.918;2023-04-24T09:42:14;6.7;;;3.1;;
61499;SDS011;47361;49.996;19.918;2023-04-24T09:46:14;5.2;;;3.4;;
61499;SDS011;47361;49.996;19.918;2023-04-24T09:51:14;4.4;;;3.3;;
61499;SDS011;47361;49.996;19.918;2023-04-24T09:52:15;4.4;;;3.3;;
61499;SDS011;47361;49.996;19.918;2023-04-24T09:54:15;4.4;;;3.3;;
61499;SDS011;47361;49.996;19.918;2023-04-24T09:55:16;5.4;;;3.3;;
61499;SDS011;47361;49.996;19.918;2023-04-24T09:59:15;5.4;;;3.3;;
61499;SDS011;47361;49.996;19.918;2023-04-24T10:03:14;4.7;;;3.0;;
61499;SDS011;47361;49.996;19.918;2023-04-24T10:11:14;5.7;;;3.2;;
61499;SDS011;47361;49.996;19.918;2023-04-24T10:12:14;5.7;;;3.2;;
61499;SDS011;47361;49.996;19.918;2023-04-24T10:16:14;5.5;;;3.1;;
61499;SDS011;47361;49.996;19.918;2023-04-24T10:17:14;5.5;;;3.1;;
61499;SDS011;47361;49.996;19.918;2023-04-24T10:20:14;4.9;;;2.7;;
61499;SDS011;47361;49.996;19.918;2023-04-24T10:27:14;4.6;;;2.9;;
61499;SDS011;47361;49.996;19.918;2023-04-24T10:30:15;4.9;;;3.1;;
61499;SDS011;47361;49.996;19.918;2023-04-24T10:36:15;4.7;;;2.6;;
61499;SDS011;47361;49.996;19.918;2023-04-24T10:40:17;5.0;;;3.0;;
61499;SDS011;47361;49.996;19.918;2023-04-24T10:41:14;5.0;;;3.0;;
61499;SDS011;47361;49.996;19.918;2023-04-24T10:43:17;5.0;;;3.0;;
61499;SDS011;47361;49.996;19.918;2023-04-24T10:46:19;5.1;;;2.9;;
61499;SDS011;47361;49.996;19.918;2023-04-24T10:47:14;5.1;;;2.9;;
61499;SDS011;47361;49.996;19.918;2023-04-24T10:50:14;3.1;;;2.8;;
61499;SDS011;47361;49.996;19.918;2023-04-24T10:55:14;5.6;;;3.1;;
61499;SDS011;47361;49.996;19.918;2023-04-24T10:56:16;5.6;;;3.1;;
61499;SDS011;47361;49.996;19.918;2023-04-24T11:03:23;6.0;;;3.2;;
61499;SDS011;47361;49.996;19.918;2023-04-24T11:05:15;5.0;;;3.3;;
61499;SDS011;47361;49.996;19.918;2023-04-24T11:08:15;5.0;;;3.3;;
61499;SDS011;47361;49.996;19.918;2023-04-24T11:12:14;4.8;;;2.8;;
61499;SDS011;47361;49.996;19.918;2023-04-24T11:14:14;4.8;;;2.8;;
61499;SDS011;47361;49.996;19.918;2023-04-24T11:15:14;4.1;;;3.2;;
61499;SDS011;47361;49.996;19.918;2023-04-24T11:16:15;4.1;;;3.2;;
61499;SDS011;47361;49.996;19.918;2023-04-24T11:19:18;4.1;;;3.2;;
61499;SDS011;47361;49.996;19.918;2023-04-24T11:21:16;4.1;;;2.8;;
61499;SDS011;47361;49.996;19.918;2023-04-24T11:22:15;4.1;;;2.8;;
61499;SDS011;47361;49.996;19.918;2023-04-24T11:24:24;4.1;;;2.8;;
61499;SDS011;47361;49.996;19.918;2023-04-24T11:25:15;4.2;;;2.8;;
61499;SDS011;47361;49.996;19.918;2023-04-24T11:27:15;4.2;;;2.8;;
61499;SDS011;47361;49.996;19.918;2023-04-24T11:28:14;4.2;;;2.8;;
61499;SDS011;47361;49.996;19.918;2023-04-24T11:30:17;4.1;;;3.3;;
61499;SDS011;47361;49.996;19.918;2023-04-24T11:32:15;4.1;;;3.3;;
61499;SDS011;47361;49.996;19.918;2023-04-24T11:33:19;4.1;;;3.3;;
61499;SDS011;47361;49.996;19.918;2023-04-24T11:35:16;6.0;;;3.3;;
61499;SDS011;47361;49.996;19.918;2023-04-24T11:37:14;6.0;;;3.3;;
61499;SDS011;47361;49.996;19.918;2023-04-24T11:38:14;6.0;;;3.3;;
61499;SDS011;47361;49.996;19.918;2023-04-24T11:41:14;6.1;;;3.3;;
61499;SDS011;47361;49.996;19.918;2023-04-24T11:42:15;6.1;;;3.3;;
61499;SDS011;47361;49.996;19.918;2023-04-24T11:43:16;6.1;;;3.3;;
61499;SDS011;47361;49.996;19.918;2023-04-24T11:47:14;4.0;;;3.2;;
61499;SDS011;47361;49.996;19.918;2023-04-24T11:50:16;4.9;;;2.9;;
61499;SDS011;47361;49.996;19.918;2023-04-24T11:51:14;4.9;;;2.9;;
61499;SDS011;47361;49.996;19.918;2023-04-24T11:52:15;4.9;;;2.9;;
61499;SDS011;47361;49.996;19.918;2023-04-24T11:53:14;4.9;;;2.9;;
61499;SDS011;47361;49.996;19.918;2023-04-24T11:55:25;3.1;;;2.6;;
61499;SDS011;47361;49.996;19.918;2023-04-24T11:59:14;3.1;;;2.6;;
61499;SDS011;47361;49.996;19.918;2023-04-24T12:00:15;5.0;;;2.7;;
61499;SDS011;47361;49.996;19.918;2023-04-24T12:01:14;5.0;;;2.7;;
61499;SDS011;47361;49.996;19.918;2023-04-24T12:03:14;5.0;;;2.7;;
61499;SDS011;47361;49.996;19.918;2023-04-24T12:04:15;5.0;;;2.7;;
61499;SDS011;47361;49.996;19.918;2023-04-24T12:06:14;4.9;;;3.1;;
61499;SDS011;47361;49.996;19.918;2023-04-24T12:08:27;4.9;;;3.1;;
61499;SDS011;47361;49.996;19.918;2023-04-24T12:10:14;3.5;;;2.5;;
61499;SDS011;47361;49.996;19.918;2023-04-24T12:12:16;3.5;;;2.5;;
61499;SDS011;47361;49.996;19.918;2023-04-24T12:13:14;3.5;;;2.5;;
61499;SDS011;47361;49.996;19.918;2023-04-24T12:17:15;3.4;;;3.0;;
61499;SDS011;47361;49.996;19.918;2023-04-24T12:19:17;3.4;;;3.0;;
61499;SDS011;47361;49.996;19.918;2023-04-24T12:22:14;6.3;;;3.1;;
61499;SDS011;47361;49.996;19.918;2023-04-24T12:26:18;5.6;;;2.7;;
61499;SDS011;47361;49.996;19.918;2023-04-24T12:28:14;5.6;;;2.7;;
61499;SDS011;47361;49.996;19.918;2023-04-24T12:29:19;5.6;;;2.7;;
61499;SDS011;47361;49.996;19.918;2023-04-24T12:31:14;4.4;;;2.5;;
61499;SDS011;47361;49.996;19.918;2023-04-24T12:32:15;4.4;;;2.5;;
61499;SDS011;47361;49.996;19.918;2023-04-24T12:33:17;4.4;;;2.5;;
61499;SDS011;47361;49.996;19.918;2023-04-24T12:34:18;4.4;;;2.5;;
61499;SDS011;47361;49.996;19.918;2023-04-24T12:35:19;6.4;;;4.2;;
61499;SDS011;47361;49.996;19.918;2023-04-24T12:36:14;6.4;;;4.2;;
61499;SDS011;47361;49.996;19.918;2023-04-24T12:37:14;6.4;;;4.2;;
61499;SDS011;47361;49.996;19.918;2023-04-24T12:38:15;6.4;;;4.2;;
61499;SDS011;47361;49.996;19.918;2023-04-24T12:39:15;6.4;;;4.2;;
61499;SDS011;47361;49.996;19.918;2023-04-24T12:40:15;8.9;;;4.9;;
61499;SDS011;47361;49.996;19.918;2023-04-24T12:41:14;8.9;;;4.9;;
61499;SDS011;47361;49.996;19.918;2023-04-24T12:42:14;8.9;;;4.9;;
61499;SDS011;47361;49.996;19.918;2023-04-24T12:43:15;8.9;;;4.9;;
61499;SDS011;47361;49.996;19.918;2023-04-24T12:45:15;6.5;;;4.5;;
61499;SDS011;47361;49.996;19.918;2023-04-24T12:47:14;6.5;;;4.5;;
61499;SDS011;47361;49.996;19.918;2023-04-24T12:48:14;6.5;;;4.5;;
61499;SDS011;47361;49.996;19.918;2023-04-24T12:49:14;6.5;;;4.5;;
61499;SDS011;47361;49.996;19.918;2023-04-24T12:52:14;7.0;;;4.6;;
61499;SDS011;47361;49.996;19.918;2023-04-24T12:54:14;7.0;;;4.6;;
61499;SDS011;47361;49.996;19.918;2023-04-24T12:57:14;7.2;;;5.0;;
61499;SDS011;47361;49.996;19.918;2023-04-24T13:02:14;6.7;;;4.6;;
61499;SDS011;47361;49.996;19.918;2023-04-24T13:03:14;6.7;;;4.6;;
61499;SDS011;47361;49.996;19.918;2023-04-24T13:04:14;6.7;;;4.6;;
61499;SDS011;47361;49.996;19.918;2023-04-24T13:08:14;5.7;;;3.9;;
61499;SDS011;47361;49.996;19.918;2023-04-24T13:09:14;5.7;;;3.9;;
61499;SDS011;47361;49.996;19.918;2023-04-24T13:12:14;6.1;;;3.6;;
61499;SDS011;47361;49.996;19.918;2023-04-24T13:14:14;6.1;;;3.6;;
61499;SDS011;47361;49.996;19.918;2023-04-24T13:17:14;4.5;;;3.5;;
61499;SDS011;47361;49.996;19.918;2023-04-24T13:21:14;6.4;;;3.7;;
61499;SDS011;47361;49.996;19.918;2023-04-24T13:24:14;6.4;;;3.7;;
61499;SDS011;47361;49.996;19.918;2023-04-24T13:27:14;5.8;;;4.0;;
61499;SDS011;47361;49.996;19.918;2023-04-24T13:33:14;5.2;;;3.5;;
61499;SDS011;47361;49.996;19.918;2023-04-24T13:36:14;3.9;;;3.5;;
61499;SDS011;47361;49.996;19.918;2023-04-24T13:38:14;3.9;;;3.5;;
61499;SDS011;47361;49.996;19.918;2023-04-24T13:41:14;4.6;;;3.5;;
61499;SDS011;47361;49.996;19.918;2023-04-24T13:43:14;4.6;;;3.5;;
61499;SDS011;47361;49.996;19.918;2023-04-24T13:45:14;6.1;;;3.4;;
61499;SDS011;47361;49.996;19.918;2023-04-24T13:46:14;6.1;;;3.4;;
61499;SDS011;47361;49.996;19.918;2023-04-24T13:48:14;6.1;;;3.4;;
61499;SDS011;47361;49.996;19.918;2023-04-24T13:55:15;5.5;;;3.1;;
61499;SDS011;47361;49.996;19.918;2023-04-24T14:00:15;5.6;;;3.1;;
61499;SDS011;47361;49.996;19.918;2023-04-24T14:05:14;5.1;;;3.2;;
61499;SDS011;47361;49.996;19.918;2023-04-24T14:11:15;4.1;;;2.8;;
61499;SDS011;47361;49.996;19.918;2023-04-24T14:16:14;3.9;;;3.0;;
61499;SDS011;47361;49.996;19.918;2023-04-24T14:17:14;3.9;;;3.0;;
61499;SDS011;47361;49.996;19.918;2023-04-24T14:19:14;3.9;;;3.0;;
61499;SDS011;47361;49.996;19.918;2023-04-24T14:21:14;4.6;;;2.3;;
61499;SDS011;47361;49.996;19.918;2023-04-24T14:28:14;3.5;;;2.1;;
61499;SDS011;47361;49.996;19.918;2023-04-24T14:30:14;3.7;;;2.0;;